Aérodrome :
LOGIN :

S'inscrire | Disclaimer

   EN    FR    IT 

 










Légende :    VFR   VFR Marginal   IFR   IFR Intensif   IFR Très Intensif
Visi : 
Plafond : 
>= 8 km
>= 3000ft
5 à 8 km
1000 à 3000 ft
1500m à 5 km
500 à 1000 ft
800 à 1500m
200 à 500 ft
< 800m
< 200 ft
Symboles :   Orages  Brouillard  Fortes neiges  Fortes précipitations  Vent > 20 kt
SIGMETs :   Divers  Orages  Givrage  Turbulence  Onde Orograph.  Cendres Volcan.






- Altitude de l'aérodrome : 348 ft
- Code IATA : LDV


LFRJ - Landivisiau

DERNIER METAR :
  • 241800Z AUTO 25014KT 9999 -RA OVC006 11/10 Q1014 TEMPO 4000 SHRA BKN010

METARs EXPIRÉS :
  • 241730Z AUTO 25016KT 9999 -RA OVC006 11/10 Q1014 TEMPO 4000 SHRA BKN010 BECMG 27012G25KT
  • 241700Z AUTO 26015KT 4400 RA BR OVC005/// ///TCU 11/10 Q1014 BECMG 25015G28KT 9999 BR RADZ BKN012
  • 241630Z AUTO 25018KT 4100 -RA BR OVC005/// ///TCU 11/10 Q1014 BECMG 25015G28KT 9999 BR RADZ BKN012
  • 241600Z AUTO 24017KT 2700 -RA BR OVC006/// ///TCU 10/10 Q1015 TEMPO OVC005 BECMG 25015G28KT RADZ
  • 241530Z AUTO 24018KT 3800 -RA BR OVC006/// ///TCU 10/10 Q1015 TEMPO 2000 OVC005 BECMG 25015G28KT

TAF TAF LFRJ
Valide du 24 à 18h jusqu'au 25 à 03h UTC


241700Z 2418/2503 27012G25KT 4000 RA BR OVC008
BECMG 2419/2421 9999 BKN012
TEMPO 2419/2424 4000 SHRA BKN010
BECMG 2422/2424 BKN015



MET'MAP, la Météo Aéronautique d'un coup d'oeil ! - Copyright ORBIFLY Décembre 2007 - Disclaimer

ORBIFLY MET'MAP TEAM :

Programmation & Développement : Alexandra Zaïnal
Sur une idée originale de : Baudouin d'Aumeries
Assistance à la programmation : Marc-Olivier Méhu
Soutien technique & logistique : Manuel Goepfert

Contact : metmap@orbifly.com




SOURCES & CREDITS :

   NOAA